createdAt,value
2019-04-14T00:00:56.238Z,64.00
2019-04-14T00:01:56.591Z,64.31
2019-04-14T00:02:56.245Z,64.31
2019-04-14T00:03:56.486Z,64.18
2019-04-14T00:04:57.197Z,64.21
2019-04-14T00:05:56.209Z,64.31
2019-04-14T00:06:56.952Z,64.31
2019-04-14T00:07:56.158Z,64.31
2019-04-14T00:08:56.520Z,64.00
2019-04-14T00:09:56.349Z,65.04
2019-04-14T00:10:57.183Z,65.04
2019-04-14T00:11:56.924Z,65.17
2019-04-14T00:12:56.102Z,65.17
2019-04-14T00:13:56.678Z,65.38
2019-04-14T00:14:56.103Z,65.07
2019-04-14T00:15:56.639Z,65.07
2019-04-14T00:16:56.077Z,65.28
2019-04-14T00:17:56.799Z,65.48
2019-04-14T00:18:56.031Z,65.38
2019-04-14T00:19:56.674Z,65.07
2019-04-14T00:20:56.040Z,64.83
2019-04-14T00:21:56.635Z,65.07
2019-04-14T00:22:56.005Z,65.17
2019-04-14T00:23:56.613Z,65.48
2019-04-14T00:24:55.965Z,65.38
2019-04-14T00:25:56.480Z,65.72
2019-04-14T00:26:55.940Z,65.48
2019-04-14T00:27:56.425Z,65.80
2019-04-14T00:28:55.918Z,65.48
2019-04-14T00:29:56.802Z,65.48
2019-04-14T00:30:55.899Z,65.69
2019-04-14T00:31:56.964Z,65.93
2019-04-14T00:32:55.883Z,65.80
2019-04-14T00:33:56.355Z,65.59
2019-04-14T00:34:57.089Z,65.28
2019-04-14T00:35:55.957Z,64.97
2019-04-14T00:36:56.595Z,65.28
2019-04-14T00:37:58.283Z,65.07
2019-04-14T00:38:56.314Z,65.38
2019-04-14T00:39:55.806Z,65.48
2019-04-14T00:40:56.104Z,65.80
2019-04-14T00:41:59.036Z,65.80
2019-04-14T00:42:56.763Z,65.72
2019-04-14T00:43:56.838Z,65.59
2019-04-14T00:44:55.973Z,66.03
2019-04-14T00:45:59.044Z,65.59
2019-04-14T00:46:56.057Z,65.48
2019-04-14T00:48:03.363Z,65.80
2019-04-14T00:48:56.697Z,65.59
2019-04-14T00:49:55.719Z,65.90
2019-04-14T00:50:55.985Z,66.03
2019-04-14T00:51:55.988Z,65.93
2019-04-14T00:52:56.625Z,65.48
2019-04-14T00:53:55.787Z,65.83
2019-04-14T00:54:56.473Z,65.48
2019-04-14T00:55:55.652Z,65.69
2019-04-14T00:56:56.292Z,65.80
2019-04-14T00:57:55.611Z,65.41
2019-04-14T00:58:56.149Z,65.83
2019-04-14T00:59:55.595Z,65.80
2019-04-14T01:00:55.848Z,66.03
2019-04-14T01:01:55.557Z,65.72
2019-04-14T01:02:55.770Z,66.56
2019-04-14T01:03:55.545Z,66.24
2019-04-14T01:04:55.616Z,66.24
2019-04-14T01:05:56.768Z,66.45
2019-04-14T01:06:55.550Z,66.24
2019-04-14T01:07:56.521Z,66.24
2019-04-14T01:08:55.487Z,66.35
2019-04-14T01:09:55.483Z,66.35
2019-04-14T01:10:56.237Z,66.14
2019-04-14T01:11:55.495Z,66.35
2019-04-14T01:12:56.025Z,66.21
2019-04-14T01:13:55.428Z,66.35
2019-04-14T01:14:56.020Z,66.45
2019-04-14T01:16:03.791Z,66.24
2019-04-14T01:16:56.452Z,66.56
2019-04-14T01:17:55.386Z,66.14
2019-04-14T01:18:55.853Z,66.35
2019-04-14T01:19:55.360Z,67.49
2019-04-14T01:20:55.703Z,66.35
2019-04-14T01:21:56.641Z,66.59
2019-04-14T01:22:55.348Z,66.80
2019-04-14T01:23:56.576Z,66.59
2019-04-14T01:24:55.379Z,66.45
2019-04-14T01:25:56.382Z,65.93
2019-04-14T01:26:55.313Z,65.83
2019-04-14T01:27:55.989Z,66.35
2019-04-14T01:28:55.263Z,67.11
2019-04-14T01:29:55.935Z,65.93
2019-04-14T01:30:56.513Z,65.93
2019-04-14T01:31:55.804Z,66.03
2019-04-14T01:32:56.435Z,66.66
2019-04-14T01:33:55.538Z,66.45
2019-04-14T01:34:55.859Z,66.56
2019-04-14T01:35:55.328Z,67.08
2019-04-14T01:36:56.105Z,66.03
2019-04-14T01:37:55.165Z,66.66
2019-04-14T01:38:55.759Z,67.11
2019-04-14T01:39:55.167Z,67.00
2019-04-14T01:40:55.321Z,67.11
2019-04-14T01:41:56.327Z,66.90
2019-04-14T01:42:55.123Z,68.04
2019-04-14T01:43:56.042Z,67.76
2019-04-14T01:44:55.138Z,68.28
2019-04-14T01:46:05.257Z,68.70
2019-04-14T01:46:56.574Z,68.49
2019-04-14T01:47:55.308Z,67.55
2019-04-14T01:48:55.051Z,67.63
2019-04-14T01:49:55.220Z,67.83
2019-04-14T01:50:56.171Z,68.04
2019-04-14T01:51:55.050Z,67.94
2019-04-14T01:52:55.009Z,67.83
2019-04-14T01:53:55.285Z,67.52
2019-04-14T01:54:55.893Z,67.83
2019-04-14T01:55:54.980Z,68.04
2019-04-14T01:56:55.909Z,67.94
2019-04-14T01:57:54.953Z,68.04
2019-04-14T01:58:55.709Z,67.73
2019-04-14T01:59:54.933Z,68.46
2019-04-14T02:00:55.409Z,67.73
2019-04-14T02:01:54.910Z,67.63
2019-04-14T02:02:55.378Z,68.04
2019-04-14T02:03:54.888Z,68.35
2019-04-14T02:04:55.365Z,68.46
2019-04-14T02:05:55.992Z,68.46
2019-04-14T02:06:55.246Z,67.73
2019-04-14T02:07:55.859Z,67.42
2019-04-14T02:08:54.860Z,67.63
2019-04-14T02:09:55.329Z,68.56
2019-04-14T02:10:54.820Z,68.15
2019-04-14T02:11:55.209Z,68.04
2019-04-14T02:12:54.792Z,67.94
2019-04-14T02:13:55.107Z,68.15
2019-04-14T02:14:56.191Z,68.04
2019-04-14T02:15:55.041Z,68.56
2019-04-14T02:16:57.825Z,68.22
2019-04-14T02:17:56.715Z,68.22
2019-04-14T02:18:55.651Z,67.52
2019-04-14T02:19:54.750Z,68.56
2019-04-14T02:20:55.730Z,68.46
2019-04-14T02:21:54.699Z,68.46
2019-04-14T02:22:55.332Z,67.94
2019-04-14T02:23:56.047Z,68.46
2019-04-14T02:24:54.933Z,67.83
2019-04-14T02:25:55.763Z,68.04
2019-04-14T02:26:54.782Z,68.46
2019-04-14T02:27:55.748Z,68.66
2019-04-14T02:28:54.995Z,68.35
2019-04-14T02:29:55.692Z,68.04
2019-04-14T02:31:03.257Z,68.25
2019-04-14T02:32:25.331Z,67.91
2019-04-14T02:33:26.356Z,68.74
2019-04-14T02:34:25.892Z,68.12
2019-04-14T02:35:36.798Z,68.56
2019-04-14T02:37:30.135Z,68.66
2019-04-14T02:39:29.267Z,68.84
2019-04-14T02:40:31.220Z,68.88
2019-04-14T02:41:27.704Z,68.98
2019-04-14T02:43:29.587Z,69.09
2019-04-14T02:44:24.304Z,68.98
2019-04-14T02:45:26.855Z,68.56
2019-04-14T02:46:20.128Z,69.29
2019-04-14T02:47:48.758Z,69.29
2019-04-14T02:49:18.880Z,69.57
2019-04-14T02:50:18.254Z,69.71
2019-04-14T02:51:26.941Z,69.47
2019-04-14T02:52:19.850Z,69.37
2019-04-14T02:54:34.154Z,69.05
2019-04-14T02:55:15.234Z,69.37
2019-04-14T02:56:21.765Z,68.95
2019-04-14T02:58:34.630Z,69.68
2019-04-14T02:59:19.730Z,69.37
2019-04-14T03:00:24.169Z,69.78
2019-04-14T03:01:23.217Z,69.68
2019-04-14T03:02:30.314Z,69.40
2019-04-14T03:03:21.559Z,69.37
2019-04-14T03:04:21.633Z,69.60
2019-04-14T03:05:16.322Z,69.81
2019-04-14T03:06:18.415Z,69.92
2019-04-14T03:07:36.116Z,69.81
2019-04-14T03:08:25.927Z,70.23
2019-04-14T03:09:28.880Z,70.23
2019-04-14T03:11:25.404Z,70.23
2019-04-14T03:12:24.872Z,70.30
2019-04-14T03:13:23.103Z,69.99
2019-04-14T03:14:24.655Z,69.89
2019-04-14T03:16:25.761Z,70.09
2019-04-14T03:19:25.214Z,70.30
2019-04-14T03:20:28.012Z,70.61
2019-04-14T03:21:28.019Z,70.64
2019-04-14T03:22:36.976Z,70.85
2019-04-14T03:23:30.896Z,70.95
2019-04-14T03:24:25.765Z,71.17
2019-04-14T03:25:13.130Z,71.17
2019-04-14T03:26:17.704Z,71.27
2019-04-14T03:27:22.355Z,71.03
2019-04-14T03:28:17.472Z,71.03
2019-04-14T03:29:21.000Z,71.03
2019-04-14T03:30:45.849Z,71.23
2019-04-14T03:31:39.632Z,70.92
2019-04-14T03:32:39.019Z,71.44
2019-04-14T03:33:52.562Z,71.34
2019-04-14T03:34:33.785Z,71.34
2019-04-14T03:37:16.239Z,71.65
2019-04-14T03:38:26.367Z,72.41
2019-04-14T03:39:24.927Z,72.72
2019-04-14T03:40:27.478Z,72.52
2019-04-14T03:41:24.084Z,73.25
2019-04-14T03:45:26.086Z,73.25
2019-04-14T03:46:25.562Z,73.14
2019-04-14T03:47:22.086Z,73.14
2019-04-14T03:49:37.439Z,73.46
2019-04-14T03:52:22.169Z,74.60
2019-04-14T03:53:23.396Z,74.49
2019-04-14T03:54:15.901Z,74.49
2019-04-14T03:55:11.465Z,74.29
2019-04-14T03:56:00.656Z,73.97
2019-04-14T03:56:55.678Z,74.49
2019-04-14T03:57:54.104Z,74.60
2019-04-14T03:58:53.650Z,74.08
2019-04-14T03:59:54.205Z,74.91
2019-04-14T04:00:53.642Z,74.18
2019-04-14T04:01:54.480Z,74.67
2019-04-14T04:02:53.624Z,74.80
2019-04-14T04:03:54.228Z,74.67
2019-04-14T04:04:53.586Z,74.80
2019-04-14T04:05:54.248Z,74.70
2019-04-14T04:06:53.598Z,75.32
2019-04-14T04:07:53.855Z,75.43
2019-04-14T04:08:53.545Z,75.22
2019-04-14T04:09:54.092Z,75.12
2019-04-14T04:10:53.535Z,75.22
2019-04-14T04:11:54.136Z,75.22
2019-04-14T04:12:53.526Z,75.67
2019-04-14T04:13:54.196Z,76.20
2019-04-14T04:14:53.490Z,75.98
2019-04-14T04:15:54.030Z,76.82
2019-04-14T04:16:53.476Z,76.78
2019-04-14T04:17:53.822Z,75.64
2019-04-14T04:18:59.877Z,76.99
2019-04-14T04:19:55.531Z,76.06
2019-04-14T04:20:54.477Z,75.95
2019-04-14T04:21:53.399Z,76.51
2019-04-14T04:22:54.360Z,76.92
2019-04-14T04:23:53.405Z,76.72
2019-04-14T04:24:54.314Z,76.82
2019-04-14T04:25:53.356Z,76.72
2019-04-14T04:26:53.922Z,76.82
2019-04-14T04:27:53.344Z,76.99
2019-04-14T04:28:54.025Z,76.78
2019-04-14T04:29:53.327Z,76.57
2019-04-14T04:30:53.709Z,76.26
2019-04-14T04:31:53.299Z,76.26
2019-04-14T04:32:53.683Z,76.89
2019-04-14T04:33:54.362Z,75.95
2019-04-14T04:34:53.467Z,76.68
2019-04-14T04:35:54.317Z,76.72
2019-04-14T04:36:53.239Z,76.82
2019-04-14T04:37:54.156Z,76.78
2019-04-14T04:38:53.221Z,76.89
2019-04-14T04:39:54.003Z,76.78
2019-04-14T04:40:53.203Z,76.57
2019-04-14T04:41:53.756Z,76.68
2019-04-14T04:42:53.185Z,76.57
2019-04-14T04:43:53.900Z,76.68
2019-04-14T04:44:53.341Z,76.57
2019-04-14T04:45:53.809Z,76.78
2019-04-14T04:46:53.127Z,76.54
2019-04-14T04:47:53.474Z,76.43
2019-04-14T04:49:03.455Z,76.75
2019-04-14T04:49:55.366Z,76.33
2019-04-14T04:50:54.106Z,76.72
2019-04-14T04:51:53.123Z,76.64
2019-04-14T04:52:53.991Z,75.88
2019-04-14T04:53:53.059Z,75.71
2019-04-14T04:54:53.793Z,75.67
2019-04-14T04:55:53.047Z,75.67
2019-04-14T04:56:53.787Z,75.92
2019-04-14T04:57:53.009Z,76.82
2019-04-14T04:58:52.999Z,76.82
2019-04-14T04:59:53.924Z,76.61
2019-04-14T05:00:54.366Z,75.64
2019-04-14T05:01:53.879Z,75.57
2019-04-14T05:02:52.958Z,75.26
2019-04-14T05:03:53.619Z,76.72
2019-04-14T05:04:52.939Z,76.51
2019-04-14T05:05:53.587Z,76.43
2019-04-14T05:06:52.939Z,76.43
2019-04-14T05:07:53.304Z,76.64
2019-04-14T05:08:52.915Z,76.54
2019-04-14T05:09:53.470Z,76.61
2019-04-14T05:10:52.870Z,76.43
2019-04-14T05:11:55.144Z,76.51
2019-04-14T05:12:52.853Z,76.61
2019-04-14T05:13:53.341Z,76.72
2019-04-14T05:14:52.837Z,76.51
2019-04-14T05:15:53.210Z,76.61
2019-04-14T05:16:52.921Z,76.82
2019-04-14T05:17:53.769Z,76.64
2019-04-14T05:18:53.065Z,76.72
2019-04-14T05:19:53.956Z,76.82
2019-04-14T05:20:53.223Z,76.72
2019-04-14T05:21:53.749Z,76.51
2019-04-14T05:22:52.985Z,76.68
2019-04-14T05:23:53.773Z,76.72
2019-04-14T05:24:52.907Z,76.61
2019-04-14T05:25:53.768Z,76.61
2019-04-14T05:26:52.788Z,76.92
2019-04-14T05:27:53.799Z,76.61
2019-04-14T05:28:52.805Z,77.13
2019-04-14T05:29:53.628Z,77.44
2019-04-14T05:30:52.658Z,77.23
2019-04-14T05:31:53.297Z,77.44
2019-04-14T05:32:52.625Z,78.00
2019-04-14T05:33:53.316Z,78.41
2019-04-14T05:34:52.613Z,78.31
2019-04-14T05:35:53.214Z,78.83
2019-04-14T05:36:52.602Z,78.62
2019-04-14T05:37:52.975Z,78.10
2019-04-14T05:38:53.964Z,78.72
2019-04-14T05:39:52.724Z,78.83
2019-04-14T05:40:52.550Z,79.24
2019-04-14T05:42:00.538Z,79.24
2019-04-14T05:42:53.780Z,79.03
2019-04-14T05:43:57.050Z,78.83
2019-04-14T05:44:53.680Z,78.69
2019-04-14T05:45:52.488Z,78.48
2019-04-14T05:46:53.469Z,77.96
2019-04-14T05:47:52.470Z,77.65
2019-04-14T05:48:53.585Z,77.09
2019-04-14T05:49:54.959Z,77.13
2019-04-14T05:50:53.407Z,77.13
2019-04-14T05:51:52.519Z,77.20
2019-04-14T05:52:53.496Z,77.55
2019-04-14T05:53:52.479Z,77.75
2019-04-14T05:54:53.562Z,77.75
2019-04-14T05:55:52.558Z,77.96
2019-04-14T05:56:53.662Z,77.72
2019-04-14T05:57:52.529Z,77.61
2019-04-14T05:58:53.525Z,77.82
2019-04-14T05:59:52.736Z,77.82
2019-04-14T06:00:53.369Z,77.72
2019-04-14T06:01:52.335Z,77.78
2019-04-14T06:02:52.716Z,77.26
2019-04-14T06:03:52.287Z,77.16
2019-04-14T06:04:52.559Z,76.85
2019-04-14T06:05:52.329Z,76.75
2019-04-14T06:06:52.245Z,76.95
2019-04-14T06:07:52.264Z,77.58
2019-04-14T06:08:52.223Z,76.81
2019-04-14T06:09:52.248Z,77.26
2019-04-14T06:10:52.231Z,76.95
2019-04-14T06:11:52.220Z,76.71
2019-04-14T06:12:52.231Z,77.26
2019-04-14T06:13:52.197Z,77.02
2019-04-14T06:14:52.199Z,77.06
2019-04-14T06:15:52.198Z,77.47
2019-04-14T06:16:52.151Z,77.78
2019-04-14T06:17:52.154Z,78.20
2019-04-14T06:18:52.142Z,78.20
2019-04-14T06:19:52.128Z,78.51
2019-04-14T06:20:52.108Z,77.99
2019-04-14T06:21:52.084Z,78.51
2019-04-14T06:22:52.077Z,78.09
2019-04-14T06:23:52.103Z,78.20
2019-04-14T06:24:52.056Z,77.89
2019-04-14T06:25:52.039Z,77.64
2019-04-14T06:26:52.068Z,78.09
2019-04-14T06:27:52.029Z,78.30
2019-04-14T06:28:52.041Z,78.72
2019-04-14T06:29:51.998Z,79.13
2019-04-14T06:30:51.993Z,78.47
2019-04-14T06:31:51.975Z,78.27
2019-04-14T06:32:51.964Z,77.95
2019-04-14T06:33:51.969Z,78.58
2019-04-14T06:34:51.948Z,78.47
2019-04-14T06:35:51.965Z,78.16
2019-04-14T06:36:51.941Z,78.37
2019-04-14T06:37:51.944Z,78.89
2019-04-14T06:38:51.896Z,79.41
2019-04-14T06:39:51.887Z,79.61
2019-04-14T06:40:51.906Z,79.51
2019-04-14T06:41:51.872Z,79.72
2019-04-14T06:42:51.852Z,79.93
2019-04-14T06:43:51.850Z,79.83
2019-04-14T06:44:51.836Z,79.93
2019-04-14T06:45:51.848Z,79.93
2019-04-14T06:46:51.806Z,79.93
2019-04-14T06:47:51.805Z,80.21
2019-04-14T06:48:51.789Z,80.45
2019-04-14T06:49:51.778Z,80.76
2019-04-14T06:50:51.781Z,80.55
2019-04-14T06:51:51.785Z,80.55
2019-04-14T06:52:51.742Z,80.21
2019-04-14T06:53:51.744Z,80.21
2019-04-14T06:54:51.723Z,80.00
2019-04-14T06:55:51.715Z,80.06
2019-04-14T06:56:51.722Z,79.96
2019-04-14T06:57:51.698Z,80.31
2019-04-14T06:58:51.680Z,79.75
2019-04-14T06:59:51.697Z,79.65
2019-04-14T07:00:51.671Z,80.52
2019-04-14T07:01:51.644Z,80.41
2019-04-14T07:02:52.377Z,79.96
2019-04-14T07:03:51.628Z,79.96
2019-04-14T07:04:51.613Z,79.85
2019-04-14T07:05:51.596Z,80.00
2019-04-14T07:06:51.605Z,79.65
2019-04-14T07:07:57.153Z,79.34
2019-04-14T07:08:52.588Z,79.44
2019-04-14T07:09:51.559Z,79.65
2019-04-14T07:10:51.547Z,79.75
2019-04-14T07:11:51.576Z,79.13
2019-04-14T07:12:51.527Z,78.51
2019-04-14T07:13:51.543Z,78.82
2019-04-14T07:14:51.511Z,78.82
2019-04-14T07:15:51.490Z,78.82
2019-04-14T07:16:51.611Z,78.82
2019-04-14T07:17:51.467Z,79.34
2019-04-14T07:18:51.656Z,78.82
2019-04-14T07:20:01.322Z,79.03
2019-04-14T07:20:52.430Z,78.51
2019-04-14T07:21:51.430Z,78.51
2019-04-14T07:22:51.416Z,78.30
2019-04-14T07:23:51.409Z,78.61
2019-04-14T07:24:51.408Z,78.30
2019-04-14T07:25:51.388Z,77.99
2019-04-14T07:26:51.388Z,78.51
2019-04-14T07:27:51.357Z,78.20
2019-04-14T07:28:56.873Z,78.27
2019-04-14T07:29:52.357Z,78.20
2019-04-14T07:30:51.324Z,78.72
2019-04-14T07:31:51.339Z,78.92
2019-04-14T07:32:51.306Z,78.68
2019-04-14T07:33:51.288Z,78.58
2019-04-14T07:34:51.277Z,78.47
2019-04-14T07:35:51.270Z,79.10
2019-04-14T07:36:51.287Z,78.72
2019-04-14T07:37:51.256Z,78.68
2019-04-14T07:38:51.235Z,79.30
2019-04-14T07:39:51.220Z,79.24
2019-04-14T07:40:51.212Z,80.37
2019-04-14T07:41:51.199Z,80.68
2019-04-14T07:42:51.232Z,80.47
2019-04-14T07:43:51.174Z,80.47
2019-04-14T07:44:51.180Z,80.85
2019-04-14T07:45:51.155Z,80.47
2019-04-14T07:46:51.176Z,81.06
2019-04-14T07:47:51.140Z,80.54
2019-04-14T07:48:51.127Z,81.51
2019-04-14T07:49:51.132Z,81.30
2019-04-14T07:50:51.097Z,81.20
2019-04-14T07:51:51.133Z,82.86
2019-04-14T07:52:51.076Z,82.55
2019-04-14T07:53:51.075Z,83.48
2019-04-14T07:54:51.052Z,83.11
2019-04-14T07:55:51.045Z,82.59
2019-04-14T07:56:51.033Z,82.70
2019-04-14T07:57:51.044Z,83.38
2019-04-14T07:58:51.009Z,84.25
2019-04-14T07:59:50.993Z,84.88
2019-04-14T08:00:51.014Z,85.08
2019-04-14T08:01:50.975Z,85.19
2019-04-14T08:02:51.008Z,85.71
2019-04-14T08:03:50.962Z,85.56
2019-04-14T08:04:50.944Z,85.66
2019-04-14T08:05:50.955Z,85.04
2019-04-14T08:06:50.919Z,84.63
2019-04-14T08:07:50.970Z,84.25
2019-04-14T08:08:50.899Z,85.29
2019-04-14T08:09:50.890Z,86.05
2019-04-14T08:10:50.899Z,86.05
2019-04-14T08:11:50.881Z,85.91
2019-04-14T08:12:50.887Z,86.57
2019-04-14T08:13:50.837Z,85.81
2019-04-14T08:14:50.847Z,85.71
2019-04-14T08:15:50.824Z,86.02
2019-04-14T08:16:50.843Z,85.39
2019-04-14T08:17:50.799Z,85.39
2019-04-14T08:18:50.786Z,84.73
2019-04-14T08:19:50.809Z,83.59
2019-04-14T08:20:50.773Z,83.17
2019-04-14T08:21:50.752Z,83.84
2019-04-14T08:22:50.746Z,84.67
2019-04-14T08:23:50.730Z,84.15
2019-04-14T08:24:50.735Z,84.56
2019-04-14T08:25:50.706Z,84.81
2019-04-14T08:26:50.696Z,85.74
2019-04-14T08:27:50.684Z,85.85
2019-04-14T08:28:50.695Z,85.74
2019-04-14T08:29:50.691Z,86.05
2019-04-14T08:30:50.658Z,86.09
2019-04-14T08:31:50.639Z,86.78
2019-04-14T08:32:50.631Z,86.78
2019-04-14T08:33:50.619Z,87.19
2019-04-14T08:34:50.634Z,86.78
2019-04-14T08:35:50.596Z,87.40
2019-04-14T08:36:50.613Z,87.47
2019-04-14T08:37:50.602Z,86.02
2019-04-14T08:38:50.597Z,85.60
2019-04-14T08:39:50.561Z,85.81
2019-04-14T08:40:50.575Z,85.91
2019-04-14T08:41:50.531Z,85.60
2019-04-14T08:42:50.525Z,85.81
2019-04-14T08:43:50.513Z,85.71
2019-04-14T08:44:50.496Z,85.91
2019-04-14T08:45:50.521Z,85.71
2019-04-14T08:46:50.543Z,85.50
2019-04-14T08:47:50.462Z,84.98
2019-04-14T08:48:50.466Z,85.29
2019-04-14T08:49:50.451Z,85.81
2019-04-14T08:50:50.450Z,85.43
2019-04-14T08:51:50.422Z,86.02
2019-04-14T08:52:50.414Z,86.02
2019-04-14T08:53:50.392Z,86.05
2019-04-14T08:54:50.425Z,85.85
2019-04-14T08:55:50.405Z,86.78
2019-04-14T08:56:50.364Z,87.61
2019-04-14T08:57:50.352Z,86.74
2019-04-14T08:58:50.391Z,87.19
2019-04-14T08:59:50.336Z,87.68
2019-04-14T09:00:50.347Z,87.99
2019-04-14T09:01:50.327Z,87.57
2019-04-14T09:02:50.302Z,87.01
2019-04-14T09:03:50.292Z,86.49
2019-04-14T09:04:50.284Z,86.70
2019-04-14T09:05:50.282Z,86.80
2019-04-14T09:06:50.247Z,85.97
2019-04-14T09:07:50.246Z,85.14
2019-04-14T09:08:50.224Z,85.87
2019-04-14T09:09:50.222Z,85.71
2019-04-14T09:10:50.262Z,85.81
2019-04-14T09:11:50.192Z,86.85
2019-04-14T09:12:50.188Z,87.26
2019-04-14T09:13:50.168Z,87.57
2019-04-14T09:14:56.798Z,87.05
2019-04-14T09:15:51.172Z,86.64
2019-04-14T09:16:50.168Z,87.26
2019-04-14T09:17:50.123Z,87.47
2019-04-14T09:18:50.125Z,87.09
2019-04-14T09:19:50.103Z,87.68
2019-04-14T09:20:52.533Z,87.01
2019-04-14T09:21:50.084Z,86.39
2019-04-14T09:22:50.074Z,85.66
2019-04-14T09:23:50.058Z,85.87
2019-04-14T09:24:50.051Z,86.08
2019-04-14T09:25:50.057Z,85.14
2019-04-14T09:26:50.022Z,85.04
2019-04-14T09:27:50.012Z,85.14
2019-04-14T09:28:50.025Z,85.56
2019-04-14T09:29:52.329Z,86.91
2019-04-14T09:30:49.994Z,86.66
2019-04-14T09:31:49.979Z,86.76
2019-04-14T09:32:49.959Z,86.25
2019-04-14T09:33:49.947Z,86.66
2019-04-14T09:34:49.941Z,86.18
2019-04-14T09:35:49.955Z,85.04
2019-04-14T09:36:49.911Z,85.66
2019-04-14T09:37:49.903Z,86.76
2019-04-14T09:38:49.892Z,85.31
2019-04-14T09:39:49.881Z,85.52
2019-04-14T09:40:49.872Z,86.76
2019-04-14T09:41:49.889Z,87.35
2019-04-14T09:42:49.850Z,86.25
2019-04-14T09:43:49.840Z,86.31
2019-04-14T09:44:49.828Z,86.31
2019-04-14T09:45:49.826Z,86.00
2019-04-14T09:46:49.847Z,85.21
2019-04-14T09:47:49.789Z,85.69
2019-04-14T09:48:49.795Z,85.38
2019-04-14T09:49:49.776Z,84.80
2019-04-14T09:50:49.778Z,83.65
2019-04-14T09:51:49.749Z,84.59
2019-04-14T09:52:49.776Z,84.59
2019-04-14T09:53:49.738Z,84.31
2019-04-14T09:54:49.714Z,84.94
2019-04-14T09:55:49.752Z,85.46
2019-04-14T09:56:49.698Z,87.22
2019-04-14T09:57:49.691Z,86.87
2019-04-14T09:58:49.672Z,85.73
2019-04-14T09:59:49.662Z,85.73
2019-04-14T10:00:49.645Z,85.11
2019-04-14T10:01:49.663Z,85.00
2019-04-14T10:02:49.624Z,85.63
2019-04-14T10:03:49.610Z,85.63
2019-04-14T10:04:49.604Z,85.00
2019-04-14T10:05:49.592Z,84.90
2019-04-14T10:06:49.695Z,85.06
2019-04-14T10:07:49.577Z,84.69
2019-04-14T10:08:49.581Z,85.06
2019-04-14T10:09:49.554Z,84.96
2019-04-14T10:10:49.553Z,84.80
2019-04-14T10:11:53.494Z,84.86
2019-04-14T10:12:50.512Z,84.86
2019-04-14T10:13:49.515Z,85.17
2019-04-14T10:14:49.527Z,84.96
2019-04-14T10:15:49.506Z,85.00
2019-04-14T10:16:49.479Z,85.63
2019-04-14T10:17:49.459Z,86.72
2019-04-14T10:18:49.443Z,86.35
2019-04-14T10:19:49.437Z,85.11
2019-04-14T10:20:49.452Z,85.63
2019-04-14T10:21:49.427Z,85.63
2019-04-14T10:22:49.422Z,85.52
2019-04-14T10:23:49.397Z,86.25
2019-04-14T10:24:49.378Z,86.76
2019-04-14T10:25:49.406Z,86.35
2019-04-14T10:26:49.362Z,86.66
2019-04-14T10:27:49.374Z,85.52
2019-04-14T10:28:50.723Z,85.38
2019-04-14T10:29:49.388Z,84.59
2019-04-14T10:30:49.309Z,85.06
2019-04-14T10:31:49.328Z,85.21
2019-04-14T10:32:49.305Z,84.69
2019-04-14T10:33:49.281Z,85.31
2019-04-14T10:34:49.281Z,85.31
2019-04-14T10:35:49.279Z,85.52
2019-04-14T10:36:49.265Z,84.80
2019-04-14T10:37:49.235Z,85.35
2019-04-14T10:38:49.224Z,86.35
2019-04-14T10:39:49.218Z,85.77
2019-04-14T10:40:49.211Z,86.39
2019-04-14T10:41:49.235Z,87.32
2019-04-14T10:42:49.187Z,86.80
2019-04-14T10:43:49.172Z,86.49
2019-04-14T10:44:49.159Z,86.25
2019-04-14T10:45:49.143Z,86.25
2019-04-14T10:46:49.172Z,85.73
2019-04-14T10:47:49.145Z,85.94
2019-04-14T10:48:49.124Z,86.97
2019-04-14T10:49:49.103Z,86.76
2019-04-14T10:50:49.092Z,87.07
2019-04-14T10:51:49.154Z,86.66
2019-04-14T10:52:49.081Z,86.76
2019-04-14T10:53:49.070Z,86.66
2019-04-14T10:54:49.046Z,86.55
2019-04-14T10:55:49.034Z,86.25
2019-04-14T10:56:49.026Z,85.63
2019-04-14T10:57:49.034Z,85.52
2019-04-14T10:58:49.009Z,85.52
2019-04-14T10:59:49.001Z,85.11
2019-04-14T11:00:48.997Z,85.21
2019-04-14T11:01:48.977Z,85.83
2019-04-14T11:02:48.987Z,86.66
2019-04-14T11:03:48.947Z,87.38
2019-04-14T11:04:48.940Z,87.24
2019-04-14T11:05:48.925Z,86.31
2019-04-14T11:06:48.952Z,85.89
2019-04-14T11:07:48.900Z,85.79
2019-04-14T11:08:48.914Z,86.41
2019-04-14T11:09:48.878Z,86.21
2019-04-14T11:10:48.876Z,85.27
2019-04-14T11:11:48.866Z,85.11
2019-04-14T11:12:48.845Z,86.10
2019-04-14T11:13:48.851Z,86.87
2019-04-14T11:14:48.824Z,85.94
2019-04-14T11:15:48.812Z,86.21
2019-04-14T11:16:48.812Z,86.62
2019-04-14T11:17:48.796Z,86.72
2019-04-14T11:18:48.805Z,86.41
2019-04-14T11:19:48.771Z,86.45
2019-04-14T11:20:48.765Z,86.15
2019-04-14T11:21:48.771Z,85.52
2019-04-14T11:22:48.735Z,85.48
2019-04-14T11:23:48.729Z,85.27
2019-04-14T11:24:48.711Z,85.17
2019-04-14T11:25:48.711Z,85.06
2019-04-14T11:26:48.717Z,85.58
2019-04-14T11:27:48.697Z,85.06
2019-04-14T11:28:48.665Z,85.06
2019-04-14T11:29:53.691Z,85.48
2019-04-14T11:30:49.647Z,85.17
2019-04-14T11:31:48.631Z,85.21
2019-04-14T11:32:48.660Z,84.96
2019-04-14T11:33:48.644Z,85.17
2019-04-14T11:34:48.606Z,85.69
2019-04-14T11:35:48.591Z,85.21
2019-04-14T11:36:48.633Z,84.90
2019-04-14T11:37:48.588Z,85.31
2019-04-14T11:38:48.565Z,85.52
2019-04-14T11:39:48.571Z,85.73
2019-04-14T11:40:48.535Z,85.94
2019-04-14T11:41:48.521Z,86.08
2019-04-14T11:42:52.600Z,86.08
2019-04-14T11:43:48.510Z,86.76
2019-04-14T11:44:48.503Z,86.66
2019-04-14T11:45:48.479Z,86.25
2019-04-14T11:46:48.481Z,85.31
2019-04-14T11:47:48.461Z,84.94
2019-04-14T11:48:48.472Z,85.14
2019-04-14T11:49:48.436Z,85.66
2019-04-14T11:50:48.427Z,85.66
2019-04-14T11:51:55.123Z,85.97
2019-04-14T11:52:49.405Z,85.35
2019-04-14T11:53:48.422Z,84.94
2019-04-14T11:54:48.377Z,85.35
2019-04-14T11:55:48.375Z,85.66
2019-04-14T11:56:48.351Z,85.66
2019-04-14T11:57:48.343Z,85.66
2019-04-14T11:58:48.348Z,86.39
2019-04-14T11:59:48.339Z,86.70
2019-04-14T12:00:48.310Z,86.60
2019-04-14T12:01:48.313Z,86.97
2019-04-14T12:02:48.311Z,85.94
2019-04-14T12:03:48.293Z,85.11
2019-04-14T12:04:48.283Z,84.75
2019-04-14T12:05:48.251Z,86.04
2019-04-14T12:06:48.246Z,86.62
2019-04-14T12:07:48.275Z,87.07
2019-04-14T12:08:48.225Z,86.21
2019-04-14T12:09:48.210Z,85.73
2019-04-14T12:10:48.214Z,85.94
2019-04-14T12:11:48.193Z,85.48
2019-04-14T12:12:48.205Z,85.48
2019-04-14T12:13:48.173Z,85.31
2019-04-14T12:14:48.163Z,85.83
2019-04-14T12:15:48.142Z,86.52
2019-04-14T12:16:48.137Z,85.89
2019-04-14T12:17:48.127Z,86.21
2019-04-14T12:18:48.196Z,85.48
2019-04-14T12:19:48.099Z,86.35
2019-04-14T12:20:48.088Z,86.87
2019-04-14T12:21:48.110Z,86.45
2019-04-14T12:22:48.066Z,86.55
2019-04-14T12:23:48.111Z,87.28
2019-04-14T12:24:48.043Z,87.49
2019-04-14T12:25:48.032Z,88.07
2019-04-14T12:26:48.060Z,87.55
2019-04-14T12:27:48.862Z,87.04
2019-04-14T12:28:49.280Z,87.70
2019-04-14T12:29:48.024Z,88.42
2019-04-14T12:30:48.952Z,87.28
2019-04-14T12:31:48.659Z,87.28
2019-04-14T12:32:47.955Z,86.97
2019-04-14T12:33:47.944Z,86.76
2019-04-14T12:34:47.964Z,87.18
2019-04-14T12:35:47.919Z,86.93
2019-04-14T12:36:47.955Z,87.04
2019-04-14T12:37:47.925Z,86.93
2019-04-14T12:38:47.956Z,86.62
2019-04-14T12:39:47.873Z,86.41
2019-04-14T12:40:47.863Z,87.14
2019-04-14T12:41:47.855Z,87.41
2019-04-14T12:42:47.838Z,87.14
2019-04-14T12:43:47.887Z,87.55
2019-04-14T12:44:47.851Z,87.35
2019-04-14T12:45:47.819Z,87.14
2019-04-14T12:46:47.806Z,87.24
2019-04-14T12:47:47.783Z,88.03
2019-04-14T12:48:47.798Z,87.41
2019-04-14T12:49:47.761Z,87.30
2019-04-14T12:50:47.782Z,87.45
2019-04-14T12:51:47.774Z,87.82
2019-04-14T12:52:47.735Z,87.41
2019-04-14T12:53:47.749Z,87.55
2019-04-14T12:54:47.709Z,87.04
2019-04-14T12:55:47.695Z,86.89
2019-04-14T12:56:47.691Z,87.35
2019-04-14T12:57:47.681Z,86.99
2019-04-14T12:58:47.686Z,87.41
2019-04-14T12:59:47.655Z,87.20
2019-04-14T13:00:47.652Z,88.13
2019-04-14T13:01:47.633Z,87.97
2019-04-14T13:02:47.618Z,87.87
2019-04-14T13:03:47.631Z,87.97
2019-04-14T13:04:47.597Z,87.55
2019-04-14T13:05:47.596Z,88.18
2019-04-14T13:06:47.572Z,88.34
2019-04-14T13:07:47.576Z,88.03
2019-04-14T13:08:47.610Z,87.87
2019-04-14T13:09:47.577Z,87.93
2019-04-14T13:10:47.538Z,88.07